Time;durP1;ratioP1;P1;durP2;ratioP2;P2;SDS_P1;SDS_P2;PMS_P1;PMS_P2;Temp;Humidity;BMP_temperature;BMP_pressure;BME280_temperature;BME280_humidity;BME280_pressure;Samples;Min_cycle;Max_cycle;Signal;HPM_P1;HPM_P2
2023/10/22 00:00:38;;;;;;;1.20;0.57;;;8.90;98.40;;;;;;5005967;28;20038;-72
2023/10/22 00:03:04;;;;;;;1.08;0.68;;;8.90;98.30;;;;;;5017112;28;20030;-70
2023/10/22 00:05:29;;;;;;;1.05;0.60;;;8.90;98.30;;;;;;5006997;28;20312;-71
2023/10/22 00:07:55;;;;;;;0.45;0.45;;;8.90;98.20;;;;;;5012870;28;20430;-70
2023/10/22 00:10:20;;;;;;;1.20;0.73;;;8.80;98.20;;;;;;5009549;28;20042;-71
2023/10/22 00:12:46;;;;;;;0.88;0.60;;;8.90;98.30;;;;;;5003863;28;20381;-71
2023/10/22 00:15:11;;;;;;;0.40;0.40;;;8.90;98.20;;;;;;5004591;28;20061;-71
2023/10/22 00:17:37;;;;;;;0.55;0.47;;;8.90;98.30;;;;;;5003144;28;20044;-73
2023/10/22 00:20:03;;;;;;;0.50;0.50;;;8.90;98.10;;;;;;5000424;28;20535;-71
2023/10/22 00:22:28;;;;;;;0.93;0.50;;;9.00;98.20;;;;;;4999450;28;20076;-72
2023/10/22 00:24:53;;;;;;;0.80;0.50;;;8.80;98.00;;;;;;5000575;28;20057;-70
2023/10/22 00:27:19;;;;;;;0.50;0.40;;;8.80;98.20;;;;;;4997561;28;20738;-71
2023/10/22 00:29:45;;;;;;;0.45;0.45;;;8.90;98.30;;;;;;5005652;28;20026;-73
2023/10/22 00:32:10;;;;;;;0.68;0.40;;;8.80;98.00;;;;;;5001633;28;20406;-70
2023/10/22 00:34:36;;;;;;;1.20;0.60;;;8.90;98.40;;;;;;5001793;28;20031;-74
2023/10/22 00:37:02;;;;;;;1.17;0.50;;;8.90;98.10;;;;;;5001408;28;20042;-71
2023/10/22 00:39:28;;;;;;;0.40;0.40;;;8.90;98.20;;;;;;5008838;28;20068;-71
2023/10/22 00:41:53;;;;;;;1.25;0.70;;;8.90;98.00;;;;;;5000663;28;20134;-71
2023/10/22 00:44:19;;;;;;;0.63;0.57;;;8.90;98.10;;;;;;5006057;28;20037;-71
2023/10/22 00:46:46;;;;;;;0.65;0.45;;;8.90;98.20;;;;;;5013942;28;20033;-70
2023/10/22 00:49:14;;;;;;;0.50;0.50;;;8.90;98.10;;;;;;5010348;28;20038;-70
2023/10/22 00:51:39;;;;;;;0.65;0.40;;;8.90;97.80;;;;;;5014209;28;20037;-70
2023/10/22 00:54:05;;;;;;;0.50;0.45;;;8.90;98.00;;;;;;5007763;28;20467;-71
2023/10/22 00:56:31;;;;;;;0.80;0.50;;;8.80;98.00;;;;;;5005211;28;20042;-73
2023/10/22 00:58:57;;;;;;;0.50;0.50;;;8.80;98.00;;;;;;5012287;28;20484;-71
2023/10/22 01:01:22;;;;;;;1.30;0.63;;;8.80;98.20;;;;;;5015225;28;20542;-72
2023/10/22 01:03:48;;;;;;;1.27;0.57;;;8.70;98.00;;;;;;5010011;28;20045;-70
2023/10/22 01:06:13;;;;;;;1.05;0.52;;;8.60;98.00;;;;;;5015159;28;20030;-71
2023/10/22 01:08:39;;;;;;;0.47;0.40;;;8.60;98.20;;;;;;5002455;28;20034;-74
2023/10/22 01:11:06;;;;;;;0.93;0.70;;;8.60;98.50;;;;;;4998770;28;20045;-72
2023/10/22 01:13:32;;;;;;;0.50;0.50;;;8.70;98.50;;;;;;4994383;28;20026;-71
2023/10/22 01:15:57;;;;;;;0.90;0.52;;;8.80;98.30;;;;;;5003331;28;20041;-71
2023/10/22 01:18:23;;;;;;;1.63;0.50;;;8.70;97.80;;;;;;4997992;28;20066;-74
2023/10/22 01:20:49;;;;;;;0.50;0.50;;;8.70;97.90;;;;;;5003974;28;20041;-71
2023/10/22 01:23:15;;;;;;;0.50;0.50;;;8.70;98.20;;;;;;5001794;28;20085;-71
2023/10/22 01:25:40;;;;;;;0.57;0.57;;;8.70;98.20;;;;;;5003165;28;20049;-71
2023/10/22 01:28:06;;;;;;;1.13;0.75;;;8.60;98.20;;;;;;4998491;28;20060;-73
2023/10/22 01:30:31;;;;;;;1.58;0.63;;;8.60;98.20;;;;;;4998499;28;20034;-70
2023/10/22 01:32:57;;;;;;;0.45;0.45;;;8.60;98.10;;;;;;5001140;28;20475;-71
2023/10/22 01:35:22;;;;;;;0.40;0.40;;;8.60;98.40;;;;;;4999247;28;20030;-71
2023/10/22 01:37:48;;;;;;;1.50;0.60;;;8.70;98.30;;;;;;5000004;28;20043;-72
2023/10/22 01:40:13;;;;;;;0.93;0.50;;;8.80;98.20;;;;;;5003870;28;20026;-74
2023/10/22 01:42:39;;;;;;;1.13;0.50;;;8.60;97.90;;;;;;4993663;28;20045;-71
2023/10/22 01:45:06;;;;;;;0.70;0.50;;;8.80;97.80;;;;;;5005017;28;20522;-70
2023/10/22 01:47:31;;;;;;;0.70;0.40;;;8.70;97.80;;;;;;5009604;28;20051;-70
2023/10/22 01:49:57;;;;;;;0.47;0.40;;;8.60;98.00;;;;;;4997848;28;20030;-70
2023/10/22 01:52:23;;;;;;;0.50;0.43;;;8.80;98.00;;;;;;5003146;28;20057;-70
2023/10/22 01:54:49;;;;;;;0.50;0.50;;;8.80;97.60;;;;;;5000107;28;20437;-72
2023/10/22 01:57:16;;;;;;;0.32;0.32;;;8.80;97.40;;;;;;4998021;28;20113;-71
2023/10/22 01:59:42;;;;;;;0.50;0.50;;;8.80;97.50;;;;;;5006884;28;20040;-72
2023/10/22 02:02:08;;;;;;;0.73;0.30;;;8.80;97.40;;;;;;4999284;28;20109;-70
2023/10/22 02:04:33;;;;;;;0.57;0.55;;;8.80;97.50;;;;;;5008493;28;20058;-70
2023/10/22 02:06:59;;;;;;;0.40;0.22;;;8.70;97.30;;;;;;5010466;28;20132;-71
2023/10/22 02:09:24;;;;;;;0.43;0.32;;;8.80;97.40;;;;;;4998380;28;20470;-70
2023/10/22 02:11:50;;;;;;;0.80;0.70;;;8.80;97.00;;;;;;4992838;28;20054;-71
2023/10/22 02:14:16;;;;;;;1.25;0.63;;;8.80;97.30;;;;;;4997979;28;20025;-70
2023/10/22 02:16:41;;;;;;;1.65;0.43;;;8.80;96.50;;;;;;5002716;28;20202;-70
2023/10/22 02:19:07;;;;;;;0.43;0.43;;;8.90;97.00;;;;;;4994681;28;20379;-73
2023/10/22 02:21:32;;;;;;;0.30;0.30;;;8.90;96.90;;;;;;4997034;28;20113;-71
2023/10/22 02:23:58;;;;;;;0.57;0.40;;;8.90;96.80;;;;;;4997448;28;20038;-71
2023/10/22 02:26:24;;;;;;;0.30;0.30;;;8.80;96.80;;;;;;4997888;28;20065;-73
2023/10/22 02:28:49;;;;;;;0.40;0.40;;;8.70;96.90;;;;;;4996212;28;20030;-71
2023/10/22 02:31:15;;;;;;;1.33;0.57;;;8.60;97.10;;;;;;5003246;28;20053;-71
2023/10/22 02:33:41;;;;;;;0.82;0.43;;;8.60;97.40;;;;;;4996891;28;20050;-71
2023/10/22 02:36:07;;;;;;;1.48;0.57;;;8.60;97.30;;;;;;5000030;28;20117;-72
2023/10/22 02:38:39;;;;;;;0.40;0.40;;;8.50;97.40;;;;;;4997545;28;20029;-71
2023/10/22 02:41:05;;;;;;;0.82;0.50;;;8.60;97.70;;;;;;4996186;28;20125;-74
2023/10/22 02:43:31;;;;;;;0.55;0.50;;;8.50;97.50;;;;;;4996588;28;20038;-71
2023/10/22 02:45:56;;;;;;;0.38;0.30;;;8.50;97.70;;;;;;5001091;28;20054;-72
2023/10/22 02:48:25;;;;;;;0.50;0.30;;;8.50;97.70;;;;;;4999851;28;20038;-71
2023/10/22 02:50:51;;;;;;;0.98;0.40;;;8.50;97.60;;;;;;4998323;28;20044;-70
2023/10/22 02:53:16;;;;;;;1.83;0.63;;;8.40;97.80;;;;;;4996099;28;20042;-71
2023/10/22 02:55:42;;;;;;;3.65;0.85;;;8.50;97.80;;;;;;4997928;28;20471;-70
2023/10/22 02:58:08;;;;;;;0.43;0.40;;;8.40;97.80;;;;;;4994426;28;20026;-71
2023/10/22 03:00:34;;;;;;;1.20;0.63;;;8.50;97.50;;;;;;4995217;28;20022;-73
2023/10/22 03:03:00;;;;;;;0.32;0.30;;;8.60;97.70;;;;;;4998909;28;20030;-70
2023/10/22 03:05:26;;;;;;;0.82;0.30;;;8.50;97.40;;;;;;4997288;28;20030;-71
2023/10/22 03:07:51;;;;;;;0.50;0.22;;;8.50;97.40;;;;;;4993538;28;20041;-70
2023/10/22 03:10:16;;;;;;;0.70;0.40;;;8.60;97.40;;;;;;5008600;28;20439;-70
2023/10/22 03:12:42;;;;;;;0.40;0.40;;;8.70;96.70;;;;;;4999997;28;20061;-71
2023/10/22 03:15:09;;;;;;;0.30;0.30;;;8.80;96.80;;;;;;5009110;28;20030;-70
2023/10/22 03:17:35;;;;;;;1.27;0.50;;;8.80;96.60;;;;;;5009276;28;20029;-72
2023/10/22 03:20:00;;;;;;;0.45;0.35;;;8.70;96.90;;;;;;5011181;28;20046;-71
2023/10/22 03:22:27;;;;;;;0.50;0.50;;;8.60;96.70;;;;;;5004224;28;20046;-70
2023/10/22 03:24:52;;;;;;;0.98;0.60;;;8.60;97.30;;;;;;5005484;28;20045;-70
2023/10/22 03:27:18;;;;;;;0.32;0.22;;;8.60;97.00;;;;;;4999292;28;20157;-71
2023/10/22 03:29:44;;;;;;;0.75;0.40;;;8.60;97.40;;;;;;5007452;28;20407;-73
2023/10/22 03:32:10;;;;;;;0.30;0.28;;;8.50;97.30;;;;;;5007295;28;20036;-71
2023/10/22 03:34:36;;;;;;;0.85;0.60;;;8.40;97.40;;;;;;5005707;28;20483;-71
2023/10/22 03:37:04;;;;;;;0.80;0.38;;;8.50;97.70;;;;;;5009516;28;20037;-71
2023/10/22 03:39:30;;;;;;;0.43;0.43;;;8.50;97.60;;;;;;5001991;28;20116;-70
2023/10/22 03:41:56;;;;;;;0.70;0.43;;;8.50;97.30;;;;;;4991749;28;20382;-71
2023/10/22 03:44:21;;;;;;;0.30;0.30;;;8.50;97.50;;;;;;4999714;28;20034;-74
2023/10/22 03:46:48;;;;;;;0.63;0.52;;;8.50;97.40;;;;;;4997059;28;20084;-73
2023/10/22 03:49:14;;;;;;;0.70;0.50;;;8.40;97.70;;;;;;4999548;28;20029;-71
2023/10/22 03:51:39;;;;;;;1.08;0.40;;;8.50;97.80;;;;;;4993973;28;20085;-72
2023/10/22 03:54:05;;;;;;;1.75;0.32;;;8.40;97.40;;;;;;4998451;28;20030;-71
2023/10/22 03:56:30;;;;;;;0.40;0.40;;;8.40;97.60;;;;;;4991971;28;20144;-71
2023/10/22 03:58:56;;;;;;;0.22;0.22;;;8.40;97.70;;;;;;4992175;28;20151;-71
2023/10/22 04:01:21;;;;;;;0.75;0.35;;;8.40;97.90;;;;;;4996333;28;20026;-71
2023/10/22 04:03:47;;;;;;;0.40;0.40;;;8.40;97.40;;;;;;4997122;28;20040;-70
2023/10/22 04:06:12;;;;;;;0.68;0.50;;;8.40;97.70;;;;;;4998503;28;20393;-71
2023/10/22 04:08:38;;;;;;;0.73;0.43;;;8.40;97.80;;;;;;5000478;28;20154;-71
2023/10/22 04:11:04;;;;;;;0.75;0.47;;;8.30;97.60;;;;;;4995871;28;20036;-74
2023/10/22 04:13:30;;;;;;;0.85;0.52;;;8.20;98.00;;;;;;4993335;28;20026;-71
2023/10/22 04:15:56;;;;;;;0.30;0.30;;;8.30;97.80;;;;;;4994050;28;20030;-71
2023/10/22 04:18:21;;;;;;;0.43;0.40;;;8.30;97.80;;;;;;4997683;28;20053;-70
2023/10/22 04:20:47;;;;;;;0.82;0.43;;;8.20;97.50;;;;;;5001396;28;20390;-71
2023/10/22 04:23:13;;;;;;;0.50;0.50;;;8.20;97.90;;;;;;4994273;28;20026;-71
2023/10/22 04:25:40;;;;;;;0.47;0.43;;;8.20;97.90;;;;;;4996184;28;20050;-71
2023/10/22 04:28:09;;;;;;;0.52;0.40;;;8.20;97.90;;;;;;5009313;28;20034;-69
2023/10/22 04:30:45;;;;;;;1.60;0.55;;;8.30;98.00;;;;;;4997417;28;20026;-70
2023/10/22 04:33:11;;;;;;;0.43;0.43;;;8.30;98.10;;;;;;5012618;28;20092;-70
2023/10/22 04:35:37;;;;;;;0.50;0.50;;;8.40;97.90;;;;;;5000442;28;20030;-67
2023/10/22 04:38:03;;;;;;;0.30;0.30;;;8.50;97.70;;;;;;4999366;28;20038;-68
2023/10/22 04:40:32;;;;;;;1.65;0.68;;;8.60;97.10;;;;;;4995531;28;20042;-68
2023/10/22 04:42:58;;;;;;;0.30;0.30;;;8.60;96.90;;;;;;4998831;28;20026;-71
2023/10/22 04:45:23;;;;;;;0.68;0.55;;;8.50;97.00;;;;;;5003972;28;20036;-67
2023/10/22 04:47:49;;;;;;;0.60;0.40;;;8.40;97.30;;;;;;5000626;28;20037;-68
2023/10/22 04:50:14;;;;;;;0.52;0.35;;;8.40;97.60;;;;;;4999213;28;20033;-68
2023/10/22 04:52:40;;;;;;;1.10;0.43;;;8.40;97.30;;;;;;5002422;28;20042;-69
2023/10/22 04:55:05;;;;;;;0.80;0.28;;;8.40;97.40;;;;;;4997615;28;20074;-68
2023/10/22 04:57:31;;;;;;;0.57;0.20;;;8.60;97.40;;;;;;4994074;28;20037;-69
2023/10/22 04:59:57;;;;;;;0.60;0.30;;;8.50;97.10;;;;;;4998146;28;20034;-68
2023/10/22 05:02:22;;;;;;;1.95;0.30;;;8.60;97.10;;;;;;4999024;28;20960;-68
2023/10/22 05:04:50;;;;;;;0.70;0.35;;;8.60;97.00;;;;;;5001503;28;21179;-68
2023/10/22 05:07:15;;;;;;;1.38;0.50;;;8.60;96.50;;;;;;5000569;28;20390;-69
2023/10/22 05:09:41;;;;;;;0.30;0.30;;;8.60;97.00;;;;;;5017140;28;20044;-67
2023/10/22 05:12:07;;;;;;;0.50;0.32;;;8.60;97.10;;;;;;4994875;28;20842;-69
2023/10/22 05:14:32;;;;;;;0.68;0.50;;;8.70;96.40;;;;;;4998710;28;20036;-68
2023/10/22 05:16:58;;;;;;;0.77;0.40;;;8.60;96.70;;;;;;5001269;28;20041;-68
2023/10/22 05:19:24;;;;;;;0.20;0.20;;;8.50;96.80;;;;;;4996435;28;20034;-70
2023/10/22 05:21:51;;;;;;;0.35;0.35;;;8.40;97.20;;;;;;5000312;28;20049;-68
2023/10/22 05:24:17;;;;;;;0.28;0.20;;;8.40;97.10;;;;;;5002494;28;20096;-68
2023/10/22 05:26:43;;;;;;;0.40;0.40;;;8.40;97.30;;;;;;4999543;28;20075;-69
2023/10/22 05:29:08;;;;;;;1.73;0.60;;;8.40;97.30;;;;;;4995548;28;20154;-68
2023/10/22 05:31:34;;;;;;;0.28;0.28;;;8.40;97.40;;;;;;4998071;28;20041;-68
2023/10/22 05:33:59;;;;;;;1.48;0.40;;;8.50;97.50;;;;;;4998269;28;20387;-68
2023/10/22 05:36:26;;;;;;;1.00;0.40;;;8.50;97.50;;;;;;5001495;28;20319;-69
2023/10/22 05:38:51;;;;;;;0.57;0.38;;;8.50;97.20;;;;;;5006438;28;21343;-68
2023/10/22 05:41:31;;;;;;;0.25;0.22;;;8.60;97.00;;;;;;4996282;28;20289;-70
2023/10/22 05:44:01;;;;;;;0.38;0.25;;;8.60;96.70;;;;;;4999384;28;20037;-68
2023/10/22 05:46:27;;;;;;;0.20;0.20;;;8.60;96.90;;;;;;5003151;28;22721;-68
2023/10/22 05:48:53;;;;;;;0.50;0.38;;;8.50;96.80;;;;;;5000531;28;20108;-68
2023/10/22 05:51:19;;;;;;;0.95;0.40;;;8.50;97.20;;;;;;4997811;28;20042;-71
2023/10/22 05:53:45;;;;;;;0.10;0.10;;;8.50;97.10;;;;;;4999041;28;20031;-69
2023/10/22 05:56:10;;;;;;;0.38;0.38;;;8.60;97.20;;;;;;4996115;28;20034;-69
2023/10/22 05:58:38;;;;;;;1.02;0.32;;;8.60;96.90;;;;;;4994620;28;20317;-69
2023/10/22 06:01:03;;;;;;;0.40;0.40;;;8.70;96.80;;;;;;4997865;28;20038;-67
2023/10/22 06:03:28;;;;;;;0.47;0.38;;;8.80;96.40;;;;;;5000742;28;20041;-68
2023/10/22 06:05:54;;;;;;;0.90;0.40;;;8.80;96.80;;;;;;4999754;28;20084;-68
2023/10/22 06:08:20;;;;;;;0.63;0.45;;;8.90;96.40;;;;;;4999470;28;20647;-67
2023/10/22 06:10:48;;;;;;;0.10;0.10;;;8.90;96.10;;;;;;4995910;28;20034;-68
2023/10/22 06:13:14;;;;;;;0.38;0.30;;;8.90;95.90;;;;;;5010804;28;20133;-70
2023/10/22 06:15:42;;;;;;;0.40;0.40;;;8.90;96.20;;;;;;4998346;28;20077;-68
2023/10/22 06:18:08;;;;;;;0.85;0.45;;;9.00;95.80;;;;;;4996639;28;20076;-68
2023/10/22 06:20:35;;;;;;;0.85;0.40;;;9.10;95.80;;;;;;4996180;28;20065;-67
2023/10/22 06:23:01;;;;;;;2.03;0.40;;;9.10;95.60;;;;;;4999648;28;20038;-68
2023/10/22 06:25:26;;;;;;;0.50;0.30;;;9.00;95.70;;;;;;5004080;28;20080;-68
2023/10/22 06:27:55;;;;;;;0.40;0.20;;;9.00;96.00;;;;;;5006268;28;20120;-67
2023/10/22 06:30:25;;;;;;;0.65;0.40;;;9.30;95.10;;;;;;4999800;28;20089;-69
2023/10/22 06:32:56;;;;;;;0.85;0.50;;;9.30;95.00;;;;;;5003348;28;20481;-68
2023/10/22 06:35:22;;;;;;;0.50;0.40;;;9.30;95.00;;;;;;5004738;28;20490;-67
2023/10/22 06:37:51;;;;;;;0.30;0.30;;;9.20;95.20;;;;;;4998923;28;20042;-68
2023/10/22 06:40:18;;;;;;;0.95;0.32;;;9.30;95.20;;;;;;5003442;28;20053;-68
2023/10/22 06:42:43;;;;;;;0.98;0.30;;;9.30;95.10;;;;;;5003997;28;20431;-68
2023/10/22 06:45:09;;;;;;;0.40;0.30;;;9.40;95.10;;;;;;5003686;28;20080;-70
2023/10/22 06:47:36;;;;;;;0.30;0.30;;;9.40;94.80;;;;;;5006336;28;20045;-68
2023/10/22 06:50:03;;;;;;;0.20;0.17;;;9.50;94.80;;;;;;5010193;28;20450;-68
2023/10/22 06:52:29;;;;;;;1.00;0.32;;;9.50;94.90;;;;;;5007194;28;20036;-67
2023/10/22 06:54:54;;;;;;;0.75;0.35;;;9.50;94.80;;;;;;5010497;28;20046;-66
2023/10/22 06:57:20;;;;;;;0.47;0.20;;;9.50;94.80;;;;;;5003073;28;20049;-67
2023/10/22 06:59:51;;;;;;;0.43;0.30;;;9.60;94.60;;;;;;5005822;28;20025;-67
2023/10/22 07:02:17;;;;;;;;;;;9.70;94.50;;;;;;5005287;28;20530;-66
2023/10/22 07:04:44;;;;;;;0.20;0.20;;;9.70;94.40;;;;;;5004523;28;19910;-66
2023/10/22 07:07:10;;;;;;;0.50;0.35;;;9.70;94.40;;;;;;5004890;28;20363;-67
2023/10/22 07:09:36;;;;;;;0.15;0.15;;;9.70;94.60;;;;;;5004597;28;20446;-67
2023/10/22 07:12:02;;;;;;;1.20;0.28;;;9.80;94.40;;;;;;5001634;28;20066;-66
2023/10/22 07:14:28;;;;;;;0.45;0.10;;;9.80;94.80;;;;;;5006824;28;20088;-66
2023/10/22 07:16:53;;;;;;;0.17;0.17;;;9.80;94.70;;;;;;5004834;28;20046;-66
2023/10/22 07:19:19;;;;;;;0.57;0.32;;;9.90;94.30;;;;;;5007405;28;20160;-67
2023/10/22 07:21:44;;;;;;;0.38;0.35;;;10.10;93.90;;;;;;5000239;28;20101;-66
2023/10/22 07:24:10;;;;;;;1.25;0.45;;;10.20;93.80;;;;;;5001439;28;20088;-66
2023/10/22 07:26:35;;;;;;;2.42;0.20;;;10.40;93.00;;;;;;5001636;28;20137;-66
2023/10/22 07:29:01;;;;;;;0.20;0.20;;;10.50;93.30;;;;;;5005373;28;20050;-66
2023/10/22 07:31:26;;;;;;;0.20;0.17;;;10.50;93.30;;;;;;5009997;28;20036;-66
2023/10/22 07:33:52;;;;;;;0.30;0.30;;;10.60;93.00;;;;;;5000383;28;20034;-66
2023/10/22 07:36:17;;;;;;;0.43;0.20;;;10.80;92.40;;;;;;5008896;28;20038;-69
2023/10/22 07:38:43;;;;;;;0.43;0.20;;;10.80;92.50;;;;;;5005148;28;20018;-67
2023/10/22 07:41:15;;;;;;;1.20;0.20;;;10.90;92.70;;;;;;5006839;28;20053;-66
2023/10/22 07:43:40;;;;;;;0.10;0.10;;;11.00;92.60;;;;;;4996286;28;20515;-66
2023/10/22 07:46:06;;;;;;;0.63;0.10;;;11.00;92.80;;;;;;5004947;28;20057;-67
2023/10/22 07:48:32;;;;;;;0.70;0.17;;;11.10;91.90;;;;;;5005038;28;20080;-67
2023/10/22 07:51:11;;;;;;;0.28;0.20;;;11.10;91.70;;;;;;5008507;28;20385;-67
2023/10/22 07:53:36;;;;;;;0.43;0.30;;;11.20;91.20;;;;;;5003840;28;20037;-67
2023/10/22 07:56:03;;;;;;;0.20;0.20;;;11.30;91.30;;;;;;5003351;28;20366;-68
2023/10/22 07:58:28;;;;;;;0.20;0.20;;;11.40;92.00;;;;;;5000105;28;20042;-66
2023/10/22 08:00:54;;;;;;;0.20;0.20;;;11.60;91.40;;;;;;5006856;28;20022;-70
2023/10/22 08:03:19;;;;;;;0.90;0.55;;;11.60;91.40;;;;;;4999090;28;20145;-70
2023/10/22 08:05:45;;;;;;;0.40;0.32;;;11.60;91.50;;;;;;5007240;28;20030;-67
2023/10/22 08:08:10;;;;;;;0.63;0.30;;;11.60;90.70;;;;;;4997141;28;20042;-71
2023/10/22 08:10:36;;;;;;;0.80;0.30;;;11.60;90.70;;;;;;4994885;28;20038;-67
2023/10/22 08:13:01;;;;;;;1.73;0.28;;;11.60;91.00;;;;;;4994046;28;20038;-69
2023/10/22 08:15:27;;;;;;;0.10;0.10;;;11.80;89.80;;;;;;5003698;28;20040;-68
2023/10/22 08:17:52;;;;;;;0.45;0.20;;;11.70;91.00;;;;;;5013756;28;20042;-67
2023/10/22 08:20:17;;;;;;;0.13;0.10;;;11.70;90.90;;;;;;5009808;28;20037;-67
2023/10/22 08:22:43;;;;;;;0.10;0.10;;;11.80;90.00;;;;;;5009350;28;20034;-67
2023/10/22 08:25:08;;;;;;;0.08;0.03;;;11.90;90.10;;;;;;5005602;28;20073;-69
2023/10/22 08:27:34;;;;;;;0.93;0.32;;;12.00;90.30;;;;;;5003241;28;20044;-70
2023/10/22 08:29:59;;;;;;;2.47;0.50;;;12.00;90.90;;;;;;5012586;28;20545;-68
2023/10/22 08:32:25;;;;;;;1.00;0.32;;;12.10;90.10;;;;;;5008302;28;20122;-68
2023/10/22 08:34:50;;;;;;;0.35;0.30;;;12.10;90.70;;;;;;5005262;28;20454;-68
2023/10/22 08:37:16;;;;;;;0.68;0.28;;;12.10;90.10;;;;;;5009723;28;20034;-68
2023/10/22 08:39:42;;;;;;;1.10;0.43;;;12.10;90.30;;;;;;5006957;28;20535;-66
2023/10/22 08:42:11;;;;;;;0.38;0.20;;;12.00;90.30;;;;;;5000056;28;20062;-69
2023/10/22 08:44:44;;;;;;;0.95;0.35;;;12.00;90.40;;;;;;5004120;28;20036;-68
2023/10/22 08:47:10;;;;;;;0.20;0.20;;;12.00;90.20;;;;;;5015443;28;20044;-69
2023/10/22 08:49:38;;;;;;;1.75;0.20;;;12.00;90.80;;;;;;5003495;28;20031;-68
2023/10/22 08:52:04;;;;;;;0.77;0.30;;;11.90;91.30;;;;;;5019670;28;20037;-68
2023/10/22 08:54:30;;;;;;;1.40;0.30;;;11.90;91.60;;;;;;5004940;28;20030;-69
2023/10/22 08:56:56;;;;;;;1.35;0.30;;;11.80;92.40;;;;;;5000100;28;20027;-69
2023/10/22 08:59:22;;;;;;;1.77;0.25;;;11.70;92.90;;;;;;5000849;28;20071;-69
2023/10/22 09:01:47;;;;;;;0.50;0.30;;;11.70;92.80;;;;;;5007955;28;20038;-68
2023/10/22 09:04:13;;;;;;;0.47;0.40;;;11.60;93.20;;;;;;5007249;28;20382;-68
2023/10/22 09:06:38;;;;;;;1.45;0.22;;;11.50;94.00;;;;;;5005693;28;20030;-69
2023/10/22 09:09:04;;;;;;;1.25;0.30;;;11.40;94.60;;;;;;5005238;28;20034;-67
2023/10/22 09:11:30;;;;;;;0.20;0.20;;;11.30;95.20;;;;;;5001297;28;20056;-69
2023/10/22 09:13:55;;;;;;;0.20;0.20;;;11.30;95.70;;;;;;5006454;28;20383;-66
2023/10/22 09:16:31;;;;;;;2.85;0.25;;;11.20;96.10;;;;;;4998305;28;20065;-66
2023/10/22 09:18:58;;;;;;;0.50;0.30;;;11.20;96.60;;;;;;5008809;28;20030;-66
2023/10/22 09:21:26;;;;;;;1.25;0.30;;;11.20;96.70;;;;;;5004938;28;20083;-67
2023/10/22 09:24:04;;;;;;;0.35;0.20;;;11.10;97.00;;;;;;5004128;28;20038;-66
2023/10/22 09:26:41;;;;;;;0.63;0.28;;;11.20;97.20;;;;;;4995224;28;20054;-68
2023/10/22 09:29:07;;;;;;;0.30;0.22;;;11.10;97.20;;;;;;4999070;28;20026;-66
2023/10/22 09:31:33;;;;;;;0.68;0.35;;;11.20;97.40;;;;;;5006079;28;20075;-66
2023/10/22 09:33:59;;;;;;;0.32;0.28;;;11.20;97.40;;;;;;5006695;28;20121;-66
2023/10/22 09:36:25;;;;;;;0.20;0.20;;;11.30;97.30;;;;;;5005294;28;20183;-66
2023/10/22 09:38:52;;;;;;;0.45;0.38;;;11.30;97.20;;;;;;5002167;28;20041;-66
2023/10/22 09:41:25;;;;;;;0.47;0.40;;;11.30;97.20;;;;;;5000593;28;20037;-70
2023/10/22 09:43:52;;;;;;;0.30;0.30;;;11.30;97.10;;;;;;5008410;28;20038;-67
2023/10/22 09:46:21;;;;;;;0.60;0.32;;;11.40;97.10;;;;;;5005697;28;20137;-66
2023/10/22 09:48:48;;;;;;;0.40;0.20;;;11.40;97.20;;;;;;5007898;28;20029;-66
2023/10/22 09:51:17;;;;;;;0.30;0.30;;;11.40;97.10;;;;;;5003442;28;20080;-70
2023/10/22 09:53:54;;;;;;;0.55;0.50;;;11.40;97.00;;;;;;5020112;28;20038;-67
2023/10/22 09:56:21;;;;;;;0.55;0.28;;;11.40;97.20;;;;;;5004000;28;20040;-68
2023/10/22 09:58:49;;;;;;;0.43;0.30;;;11.40;97.40;;;;;;5003670;28;20494;-65
2023/10/22 10:01:15;;;;;;;0.93;0.57;;;11.40;97.40;;;;;;5010288;28;20121;-66
2023/10/22 10:03:43;;;;;;;2.05;0.45;;;11.40;97.10;;;;;;4999940;28;20038;-68
2023/10/22 10:06:09;;;;;;;0.47;0.40;;;11.50;97.10;;;;;;5005165;28;20041;-65
2023/10/22 10:08:37;;;;;;;1.67;0.55;;;11.50;96.90;;;;;;5000244;28;20371;-65
2023/10/22 10:11:06;;;;;;;0.60;0.50;;;11.50;96.80;;;;;;5006343;28;20465;-65
2023/10/22 10:13:32;;;;;;;0.70;0.50;;;11.50;97.00;;;;;;4996450;28;20455;-65
2023/10/22 10:15:59;;;;;;;1.17;0.63;;;11.50;97.10;;;;;;5003069;28;20041;-67
2023/10/22 10:19:09;;;;;;;0.32;0.32;;;11.60;97.30;;;;;;5010744;28;20477;-65
2023/10/22 10:21:34;;;;;;;0.70;0.52;;;11.50;97.60;;;;;;4982387;28;20065;-65
2023/10/22 10:24:19;;;;;;;0.52;0.45;;;11.40;97.80;;;;;;4982287;28;20069;-66
2023/10/22 10:26:46;;;;;;;0.60;0.40;;;11.30;98.20;;;;;;4990459;28;20196;-67
2023/10/22 10:29:19;;;;;;;0.60;0.52;;;11.30;98.60;;;;;;5007955;28;20045;-65
2023/10/22 10:31:50;;;;;;;0.30;0.30;;;11.20;98.90;;;;;;5000253;28;20017;-70
2023/10/22 10:34:33;;;;;;;0.82;0.60;;;11.20;99.10;;;;;;5001378;28;20069;-65
2023/10/22 10:37:20;;;;;;;0.60;0.50;;;11.10;99.30;;;;;;5002736;28;20037;-68
2023/10/22 10:39:53;;;;;;;0.60;0.40;;;11.10;99.30;;;;;;4996135;28;20505;-66
2023/10/22 10:42:31;;;;;;;0.50;0.40;;;11.10;99.30;;;;;;4993628;28;20173;-67
2023/10/22 10:45:02;;;;;;;0.45;0.38;;;11.10;99.30;;;;;;5000680;28;20038;-67
2023/10/22 10:47:31;;;;;;;0.50;0.47;;;11.10;99.10;;;;;;4997944;28;20116;-65
2023/10/22 10:50:11;;;;;;;0.30;0.30;;;11.10;99.10;;;;;;5004088;28;20952;-67
2023/10/22 10:52:45;;;;;;;0.65;0.52;;;11.10;99.10;;;;;;5002465;28;20489;-67
2023/10/22 10:55:20;;;;;;;0.30;0.30;;;11.20;98.90;;;;;;4998299;28;20375;-67
2023/10/22 10:57:50;;;;;;;0.95;0.47;;;11.20;98.50;;;;;;4994866;28;20403;-65
2023/10/22 11:00:27;;;;;;;2.05;0.60;;;11.30;98.00;;;;;;4997415;28;20034;-67
2023/10/22 11:02:53;;;;;;;1.00;0.50;;;11.40;98.10;;;;;;5025608;28;20103;-67
2023/10/22 11:05:33;;;;;;;0.60;0.50;;;11.50;97.70;;;;;;5018612;28;20379;-65
2023/10/22 11:07:59;;;;;;;1.45;0.77;;;11.60;97.50;;;;;;5005693;28;20180;-68
2023/10/22 11:10:27;;;;;;;0.85;0.80;;;11.60;97.70;;;;;;4998433;28;20064;-65
2023/10/22 11:13:01;;;;;;;1.50;0.90;;;11.70;97.60;;;;;;5005278;28;20040;-66
2023/10/22 11:15:31;;;;;;;0.70;0.68;;;11.70;97.40;;;;;;5003399;28;20444;-66
2023/10/22 11:18:18;;;;;;;1.75;0.90;;;11.60;97.30;;;;;;5004668;28;20022;-65
2023/10/22 11:20:56;;;;;;;0.85;0.70;;;11.60;97.20;;;;;;5006840;28;20037;-70
2023/10/22 11:23:21;;;;;;;1.15;0.80;;;11.60;97.30;;;;;;5003663;28;20034;-66
2023/10/22 11:25:47;;;;;;;1.48;0.82;;;11.70;97.20;;;;;;4997441;28;20056;-67
2023/10/22 11:28:13;;;;;;;1.20;1.00;;;11.70;97.30;;;;;;5000466;28;20390;-68
2023/10/22 11:30:41;;;;;;;1.58;0.80;;;11.80;97.30;;;;;;4995522;28;20451;-66
2023/10/22 11:33:09;;;;;;;4.40;0.90;;;11.90;97.40;;;;;;5001785;28;20407;-65
2023/10/22 11:35:36;;;;;;;1.10;0.77;;;12.00;97.30;;;;;;5006368;28;20372;-66
2023/10/22 11:38:02;;;;;;;1.42;0.90;;;12.20;97.00;;;;;;5000557;28;20105;-68
2023/10/22 11:40:36;;;;;;;1.70;1.13;;;12.40;96.20;;;;;;5004107;28;20526;-70
2023/10/22 11:43:12;;;;;;;1.48;0.95;;;13.00;95.10;;;;;;5000977;28;20479;-67
2023/10/22 11:45:52;;;;;;;1.42;0.93;;;13.40;94.60;;;;;;4995186;28;20038;-66
2023/10/22 11:48:19;;;;;;;2.17;1.20;;;14.10;93.30;;;;;;5003023;28;20038;-67
2023/10/22 11:50:46;;;;;;;1.10;0.90;;;14.30;91.30;;;;;;4999798;28;20372;-67
2023/10/22 11:53:11;;;;;;;1.10;0.70;;;14.40;90.20;;;;;;5000495;28;20030;-67
2023/10/22 11:55:37;;;;;;;1.10;0.70;;;14.80;90.20;;;;;;5002545;28;20045;-67
2023/10/22 11:58:19;;;;;;;0.75;0.45;;;14.80;88.30;;;;;;5002439;28;20030;-70
2023/10/22 12:00:45;;;;;;;0.45;0.40;;;15.10;88.20;;;;;;4999402;28;20057;-66
2023/10/22 12:03:11;;;;;;;0.90;0.40;;;15.30;86.30;;;;;;5007827;28;20157;-67
2023/10/22 12:05:36;;;;;;;1.40;0.60;;;15.40;85.90;;;;;;5004298;28;20022;-67
2023/10/22 12:08:02;;;;;;;1.25;0.40;;;15.40;85.00;;;;;;5008356;28;20044;-66
2023/10/22 12:10:28;;;;;;;0.45;0.30;;;15.40;85.50;;;;;;5000038;28;20653;-66
2023/10/22 12:12:53;;;;;;;0.30;0.30;;;15.20;85.70;;;;;;5005908;28;20402;-66
2023/10/22 12:15:18;;;;;;;0.68;0.20;;;14.90;84.60;;;;;;5007007;28;20037;-68
2023/10/22 12:17:44;;;;;;;0.47;0.32;;;14.50;84.30;;;;;;5005197;28;20157;-66
2023/10/22 12:20:10;;;;;;;0.77;0.40;;;14.20;86.00;;;;;;5006098;28;20041;-66
2023/10/22 12:22:35;;;;;;;0.63;0.30;;;14.00;86.80;;;;;;5006288;28;20501;-66
2023/10/22 12:25:03;;;;;;;1.27;0.28;;;14.20;85.90;;;;;;5002134;28;20045;-65
2023/10/22 12:27:30;;;;;;;0.60;0.35;;;14.00;85.70;;;;;;4990808;28;20030;-67
2023/10/22 12:29:56;;;;;;;0.10;0.10;;;14.00;86.60;;;;;;4996590;28;20029;-68
2023/10/22 12:32:22;;;;;;;0.82;0.32;;;13.80;86.90;;;;;;5005725;28;20025;-69
2023/10/22 12:34:47;;;;;;;1.75;0.40;;;13.70;86.80;;;;;;5004724;28;20489;-67
2023/10/22 12:37:13;;;;;;;0.40;0.30;;;13.60;87.20;;;;;;5005536;28;20037;-66
2023/10/22 12:39:40;;;;;;;0.88;0.47;;;13.50;87.40;;;;;;4992559;28;20045;-68
2023/10/22 12:42:06;;;;;;;0.52;0.40;;;13.40;87.20;;;;;;5002273;28;20054;-67
2023/10/22 12:44:32;;;;;;;0.40;0.30;;;13.40;87.80;;;;;;5009522;28;20037;-66
2023/10/22 12:46:57;;;;;;;0.43;0.38;;;13.60;86.20;;;;;;5002747;28;20032;-67
2023/10/22 12:49:23;;;;;;;0.35;0.35;;;13.90;85.40;;;;;;5004402;28;20033;-65
2023/10/22 12:51:49;;;;;;;1.02;0.50;;;13.90;84.70;;;;;;5005483;28;20124;-67